createdAt,value
2022-12-29T00:00:18.059Z,102038.84
2022-12-29T00:02:45.171Z,102027.44
2022-12-29T00:05:12.246Z,102013.22
2022-12-29T00:07:39.880Z,102009.69
2022-12-29T00:10:08.920Z,102009.56
2022-12-29T00:12:54.724Z,102011.16
2022-12-29T00:15:43.991Z,102012.13
2022-12-29T00:18:14.308Z,102010.34
2022-12-29T00:20:59.911Z,102006.22
2022-12-29T00:23:45.399Z,102014.25
2022-12-29T00:26:39.716Z,102006.34
2022-12-29T00:29:30.843Z,102005.44
2022-12-29T00:32:16.169Z,101993.06
2022-12-29T00:35:04.061Z,101986.84
2022-12-29T00:37:49.660Z,101992.94
2022-12-29T00:40:35.419Z,101982.41
2022-12-29T00:43:23.078Z,101986.09
2022-12-29T00:45:49.986Z,101985.16
2022-12-29T00:48:36.789Z,101993.06
2022-12-29T00:51:05.832Z,101998.47
2022-12-29T00:53:35.900Z,101999.38
2022-12-29T00:56:05.058Z,101994.97
2022-12-29T00:58:32.023Z,101993.25
2022-12-29T01:01:09.793Z,101986.16
2022-12-29T01:03:42.737Z,101983.50
2022-12-29T01:06:15.067Z,101988.84
2022-12-29T01:08:42.111Z,101988.72
2022-12-29T01:11:13.815Z,101987.75
2022-12-29T01:13:42.419Z,101986.16
2022-12-29T01:16:09.478Z,101969.41
2022-12-29T01:18:36.570Z,101967.59
2022-12-29T01:21:07.662Z,101984.44
2022-12-29T01:23:35.092Z,101977.47
2022-12-29T01:26:12.747Z,101987.16
2022-12-29T01:28:43.104Z,101988.03
2022-12-29T01:31:18.009Z,101988.03
2022-12-29T01:33:47.370Z,101985.41
2022-12-29T01:36:18.117Z,101981.78
2022-12-29T01:38:47.293Z,102002.00
2022-12-29T01:41:16.061Z,101993.28
2022-12-29T01:43:52.137Z,101995.88
2022-12-29T01:46:31.227Z,101995.91
2022-12-29T01:49:07.430Z,101994.09
2022-12-29T01:51:39.370Z,101992.34
2022-12-29T01:54:13.248Z,102000.25
2022-12-29T01:56:40.405Z,102005.47
2022-12-29T01:59:12.538Z,102009.00
2022-12-29T02:01:39.633Z,101992.34
2022-12-29T02:04:06.579Z,101996.66
2022-12-29T02:06:39.484Z,101991.47
2022-12-29T02:09:09.584Z,101984.38
2022-12-29T02:11:37.717Z,101985.19
2022-12-29T02:14:12.608Z,101977.28
2022-12-29T02:17:06.324Z,101985.84
2022-12-29T02:20:01.729Z,101984.09
2022-12-29T02:23:20.747Z,101977.16
2022-12-29T02:26:24.974Z,101973.63
2022-12-29T02:29:17.246Z,101967.72
2022-12-29T02:32:04.189Z,101968.59
2022-12-29T02:34:42.121Z,101965.16
2022-12-29T02:37:21.168Z,101960.81
2022-12-29T02:40:12.390Z,101968.66
2022-12-29T02:42:50.513Z,101958.19
2022-12-29T02:45:23.231Z,101956.38
2022-12-29T02:47:56.268Z,101956.19
2022-12-29T02:50:43.496Z,101969.16
2022-12-29T02:53:17.588Z,101962.75
2022-12-29T02:55:53.557Z,101958.25
2022-12-29T02:58:35.131Z,101948.81
2022-12-29T03:01:08.178Z,101932.19
2022-12-29T03:03:53.094Z,101928.09
2022-12-29T03:07:05.440Z,101927.38
2022-12-29T03:09:46.115Z,101924.00
2022-12-29T03:12:23.660Z,101937.19
2022-12-29T03:15:25.732Z,101934.56
2022-12-29T03:17:55.359Z,101929.34
2022-12-29T03:20:37.759Z,101926.75
2022-12-29T03:23:26.804Z,101930.22
2022-12-29T03:26:09.308Z,101919.66
2022-12-29T03:28:48.620Z,101917.81
2022-12-29T03:31:16.816Z,101906.25
2022-12-29T03:33:45.833Z,101919.44
2022-12-29T03:36:22.926Z,101912.22
2022-12-29T03:39:16.947Z,101918.56
2022-12-29T03:41:47.129Z,101921.38
2022-12-29T03:44:14.584Z,101929.28
2022-12-29T03:46:43.464Z,101930.19
2022-12-29T03:49:13.334Z,101917.91
2022-12-29T03:51:45.593Z,101914.31
2022-12-29T03:54:15.783Z,101924.06
2022-12-29T03:56:42.634Z,101922.25
2022-12-29T03:59:38.076Z,101912.63
2022-12-29T04:02:05.832Z,101916.19
2022-12-29T04:04:34.935Z,101910.88
2022-12-29T04:07:03.265Z,101902.88
2022-12-29T04:09:32.691Z,101904.72
2022-12-29T04:12:09.636Z,101905.41
2022-12-29T04:14:36.522Z,101903.47
2022-12-29T04:17:08.376Z,101910.31
2022-12-29T04:19:35.189Z,101920.31
2022-12-29T04:22:03.187Z,101926.56
2022-12-29T04:24:30.128Z,101923.16
2022-12-29T04:27:01.809Z,101916.19
2022-12-29T04:29:34.329Z,101911.84
2022-12-29T04:32:04.031Z,101921.50
2022-12-29T04:34:33.433Z,101928.47
2022-12-29T04:37:06.305Z,101926.75
2022-12-29T04:39:38.052Z,101925.84
2022-12-29T04:42:07.966Z,101925.00
2022-12-29T04:44:44.719Z,101924.97
2022-12-29T04:47:12.157Z,101939.00
2022-12-29T04:49:42.040Z,101933.72
2022-12-29T04:52:09.603Z,101947.75
2022-12-29T04:54:36.499Z,101951.22
2022-12-29T04:57:06.613Z,101945.13
2022-12-29T04:59:46.910Z,101941.63
2022-12-29T05:02:14.958Z,101942.47
2022-12-29T05:04:48.323Z,101944.22
2022-12-29T05:07:19.357Z,101936.38
2022-12-29T05:09:55.244Z,101935.50
2022-12-29T05:12:22.370Z,101936.31
2022-12-29T05:14:49.166Z,101924.72
2022-12-29T05:17:16.006Z,101916.91
2022-12-29T05:19:42.836Z,101917.75
2022-12-29T05:22:12.782Z,101907.91
2022-12-29T05:24:39.504Z,101913.38
2022-12-29T05:27:06.386Z,101924.81
2022-12-29T05:29:45.180Z,101924.88
2022-12-29T05:32:12.105Z,101917.03
2022-12-29T05:34:45.039Z,101917.88
2022-12-29T05:37:12.235Z,101916.91
2022-12-29T05:39:39.105Z,101918.75
2022-12-29T05:42:06.031Z,101920.50
2022-12-29T05:44:32.886Z,101932.75
2022-12-29T05:47:03.480Z,101940.59
2022-12-29T05:49:30.590Z,101945.03
2022-12-29T05:52:02.719Z,101940.59
2022-12-29T05:54:29.731Z,101935.34
2022-12-29T05:56:59.115Z,101936.31
2022-12-29T05:59:28.983Z,101936.31
2022-12-29T06:01:58.692Z,101932.75
2022-12-29T06:04:30.529Z,101935.34
2022-12-29T06:07:02.015Z,101931.75
2022-12-29T06:09:33.240Z,101945.00
2022-12-29T06:12:03.456Z,101937.16
2022-12-29T06:14:33.105Z,101945.06
2022-12-29T06:17:07.421Z,101932.66
2022-12-29T06:19:47.446Z,101945.06
2022-12-29T06:22:17.111Z,101938.88
2022-12-29T06:24:48.865Z,101936.16
2022-12-29T06:27:15.777Z,101945.00
2022-12-29T06:29:50.504Z,101951.13
2022-12-29T06:32:25.628Z,101943.19
2022-12-29T06:34:56.298Z,101947.59
2022-12-29T06:37:23.101Z,101938.03
2022-12-29T06:39:49.850Z,101936.13
2022-12-29T06:42:28.398Z,101945.91
2022-12-29T06:45:04.316Z,101952.09
2022-12-29T06:47:42.853Z,101943.28
2022-12-29T06:50:10.886Z,101951.09
2022-12-29T06:52:38.968Z,101951.88
2022-12-29T06:55:06.752Z,101953.78
2022-12-29T06:57:39.548Z,101953.81
2022-12-29T07:00:09.166Z,101959.97
2022-12-29T07:02:36.679Z,101955.63
2022-12-29T07:05:06.713Z,101953.88
2022-12-29T07:07:40.472Z,101954.75
2022-12-29T07:10:13.371Z,101960.88
2022-12-29T07:12:40.294Z,101955.63
2022-12-29T07:15:07.647Z,101966.16
2022-12-29T07:17:37.026Z,101969.63
2022-12-29T07:20:10.791Z,101970.50
2022-12-29T07:22:37.744Z,101970.50
2022-12-29T07:25:04.946Z,101979.28
2022-12-29T07:27:41.193Z,101979.25
2022-12-29T07:30:08.635Z,101981.03
2022-12-29T07:32:41.396Z,101988.06
2022-12-29T07:35:08.562Z,101984.53
2022-12-29T07:37:36.076Z,101985.41
2022-12-29T07:40:04.548Z,101981.03
2022-12-29T07:42:32.435Z,101990.66
2022-12-29T07:44:59.261Z,101991.53
2022-12-29T07:47:29.615Z,101988.91
2022-12-29T07:49:56.408Z,101993.28
2022-12-29T07:52:28.994Z,101995.03
2022-12-29T07:55:00.975Z,101995.03
2022-12-29T07:57:31.765Z,101997.66
2022-12-29T07:59:59.415Z,102000.25
2022-12-29T08:02:27.870Z,101999.38
2022-12-29T08:04:54.747Z,101991.53
2022-12-29T08:07:24.962Z,101991.53
2022-12-29T08:09:51.764Z,101989.72
2022-12-29T08:12:19.040Z,101987.94
2022-12-29T08:14:45.960Z,101996.72
2022-12-29T08:17:15.235Z,101995.00
2022-12-29T08:19:48.109Z,101995.84
2022-12-29T08:22:15.714Z,102002.03
2022-12-29T08:24:42.550Z,101996.75
2022-12-29T08:27:19.946Z,102000.25
2022-12-29T08:29:48.056Z,101997.63
2022-12-29T08:32:14.895Z,101998.50
2022-12-29T08:34:41.765Z,101996.75
2022-12-29T08:37:11.073Z,101997.56
2022-12-29T08:39:45.312Z,101998.50
2022-12-29T08:42:12.163Z,101992.41
2022-12-29T08:44:39.405Z,101989.78
2022-12-29T08:47:06.256Z,101980.13
2022-12-29T08:49:39.007Z,101981.03
2022-12-29T08:52:12.227Z,101993.28
2022-12-29T08:54:42.314Z,101989.78
2022-12-29T08:57:09.149Z,101995.03
2022-12-29T08:59:37.115Z,101995.03
2022-12-29T09:02:07.600Z,102002.06
2022-12-29T09:04:34.802Z,102002.03
2022-12-29T09:07:04.768Z,102009.06
2022-12-29T09:09:31.557Z,102009.94
2022-12-29T09:12:00.396Z,102009.06
2022-12-29T09:14:27.279Z,102014.28
2022-12-29T09:17:15.883Z,102009.03
2022-12-29T09:19:45.035Z,102011.66
2022-12-29T09:22:14.885Z,102014.31
2022-12-29T09:24:53.303Z,102011.69
2022-12-29T09:27:20.040Z,102016.94
2022-12-29T09:30:10.190Z,102025.72
2022-12-29T09:32:44.845Z,102026.56
2022-12-29T09:35:12.810Z,102026.59
2022-12-29T09:37:45.516Z,102023.06
2022-12-29T09:40:35.579Z,102023.94
2022-12-29T09:43:32.068Z,102011.59
2022-12-29T09:46:21.067Z,102010.53
2022-12-29T09:49:23.456Z,102014.88
2022-12-29T09:52:03.729Z,102014.97
2022-12-29T09:54:39.001Z,102008.88
2022-12-29T09:57:23.069Z,102010.66
2022-12-29T09:59:59.312Z,102020.41
2022-12-29T10:02:48.858Z,102014.25
2022-12-29T10:05:47.374Z,102008.13
2022-12-29T10:08:22.891Z,102009.03
2022-12-29T10:11:25.672Z,101995.81
2022-12-29T10:14:16.299Z,102001.97
2022-12-29T10:16:46.428Z,101999.38
2022-12-29T10:19:35.570Z,101995.84
2022-12-29T10:22:08.274Z,101991.41
2022-12-29T10:24:38.941Z,102007.16
2022-12-29T10:27:12.477Z,101997.50
2022-12-29T10:29:55.045Z,101995.88
2022-12-29T10:32:49.054Z,101999.41
2022-12-29T10:35:21.031Z,101992.38
2022-12-29T10:38:32.463Z,101994.09
2022-12-29T10:41:15.125Z,102002.91
2022-12-29T10:44:03.501Z,101980.13
2022-12-29T10:46:38.642Z,101981.88
2022-12-29T10:49:21.201Z,101983.63
2022-12-29T10:51:52.573Z,101982.78
2022-12-29T10:55:00.704Z,101967.03
2022-12-29T10:57:35.155Z,101971.38
2022-12-29T11:00:07.968Z,101973.13
2022-12-29T11:03:22.275Z,101972.25
2022-12-29T11:05:55.424Z,101976.59
2022-12-29T11:08:26.414Z,101966.84
2022-12-29T11:11:06.156Z,101971.22
2022-12-29T11:14:04.647Z,101965.91
2022-12-29T11:16:36.026Z,101970.34
2022-12-29T11:19:03.547Z,101964.13
2022-12-29T11:21:46.194Z,101957.97
2022-12-29T11:24:25.384Z,101956.19
2022-12-29T11:27:19.497Z,101952.69
2022-12-29T11:29:48.641Z,101947.50
2022-12-29T11:32:34.985Z,101941.31
2022-12-29T11:35:05.535Z,101942.88
2022-12-29T11:37:41.675Z,101941.19
2022-12-29T11:40:20.300Z,101943.09
2022-12-29T11:43:02.579Z,101937.94
2022-12-29T11:45:33.887Z,101939.72
2022-12-29T11:48:09.929Z,101926.38
2022-12-29T11:51:08.187Z,101921.19
2022-12-29T11:53:48.205Z,101923.84
2022-12-29T11:56:41.113Z,101903.31
2022-12-29T11:59:28.227Z,101907.00
2022-12-29T12:02:02.662Z,101907.69
2022-12-29T12:04:38.008Z,101904.91
2022-12-29T12:07:14.900Z,101897.16
2022-12-29T12:09:51.885Z,101890.13
2022-12-29T12:12:50.184Z,101885.00
2022-12-29T12:15:43.484Z,101876.25
2022-12-29T12:18:12.938Z,101878.88
2022-12-29T12:21:23.605Z,101881.44
2022-12-29T12:24:31.909Z,101877.78
2022-12-29T12:27:27.269Z,101879.81
2022-12-29T12:30:21.985Z,101875.22
2022-12-29T12:33:12.187Z,101872.56
2022-12-29T12:36:09.000Z,101874.22
2022-12-29T12:39:06.392Z,101870.41
2022-12-29T12:42:01.567Z,101871.56
2022-12-29T12:44:56.826Z,101866.16
2022-12-29T12:47:43.997Z,101865.56
2022-12-29T12:50:53.376Z,101852.47
2022-12-29T12:53:58.267Z,101851.31
2022-12-29T12:57:00.459Z,101855.97
2022-12-29T12:59:45.627Z,101855.78
2022-12-29T13:02:52.893Z,101840.81
2022-12-29T13:05:38.552Z,101847.13
2022-12-29T13:08:37.316Z,101845.25
2022-12-29T13:11:29.016Z,101837.22
2022-12-29T13:14:24.083Z,101830.97
2022-12-29T13:16:57.176Z,101833.16
2022-12-29T13:19:40.358Z,101832.44
2022-12-29T13:22:24.141Z,101835.97
2022-12-29T13:25:26.040Z,101835.25
2022-12-29T13:28:02.140Z,101832.81
2022-12-29T13:31:07.351Z,101836.38
2022-12-29T13:33:43.545Z,101849.72
2022-12-29T13:36:27.202Z,101852.66
2022-12-29T13:39:27.694Z,101847.41
2022-12-29T13:41:57.196Z,101844.75
2022-12-29T13:44:36.267Z,101842.13
2022-12-29T13:47:26.083Z,101848.94
2022-12-29T13:49:58.698Z,101842.44
2022-12-29T13:52:40.673Z,101860.19
2022-12-29T13:55:31.851Z,101855.84
2022-12-29T13:58:05.074Z,101867.22
2022-12-29T14:00:48.411Z,101853.41
2022-12-29T14:03:42.848Z,101856.78
2022-12-29T14:06:34.134Z,101869.13
2022-12-29T14:09:07.165Z,101871.00
2022-12-29T14:11:39.297Z,101854.97
2022-12-29T14:14:36.922Z,101853.88
2022-12-29T14:17:15.636Z,101871.69
2022-12-29T14:19:52.872Z,101864.28
2022-12-29T14:22:33.209Z,101868.69
2022-12-29T14:25:13.662Z,101863.53
2022-12-29T14:27:47.690Z,101855.72
2022-12-29T14:31:00.347Z,101856.66
2022-12-29T14:33:33.431Z,101854.97
2022-12-29T14:36:23.886Z,101865.56
2022-12-29T14:39:00.398Z,101857.81
2022-12-29T14:41:27.126Z,101861.16
2022-12-29T14:44:11.878Z,101854.56
2022-12-29T14:47:21.357Z,101853.84
2022-12-29T14:49:48.459Z,101850.56
2022-12-29T14:52:32.432Z,101844.94
2022-12-29T14:55:12.773Z,101845.91
2022-12-29T14:57:42.903Z,101847.88
2022-12-29T15:00:35.148Z,101849.63
2022-12-29T15:03:23.946Z,101843.13
2022-12-29T15:06:28.326Z,101841.16
2022-12-29T15:09:27.141Z,101839.31
2022-12-29T15:12:44.408Z,101847.31
2022-12-29T15:15:33.327Z,101836.28
2022-12-29T15:18:33.510Z,101837.03
2022-12-29T15:21:07.863Z,101845.91
2022-12-29T15:23:42.085Z,101839.78
2022-12-29T15:26:15.421Z,101843.44
2022-12-29T15:28:47.647Z,101846.25
2022-12-29T15:31:30.672Z,101839.34
2022-12-29T15:34:21.404Z,101841.91
2022-12-29T15:36:54.921Z,101832.94
2022-12-29T15:39:27.703Z,101835.75
2022-12-29T15:42:31.320Z,101835.53
2022-12-29T15:45:11.617Z,101840.69
2022-12-29T15:47:40.097Z,101835.34
2022-12-29T15:50:13.805Z,101832.47
2022-12-29T15:52:40.960Z,101835.31
2022-12-29T15:55:39.500Z,101824.47
2022-12-29T15:58:30.867Z,101824.41
2022-12-29T16:01:06.788Z,101817.19
2022-12-29T16:03:38.018Z,101827.59
2022-12-29T16:06:27.124Z,101818.06
2022-12-29T16:09:08.075Z,101812.84
2022-12-29T16:11:47.089Z,101810.19
2022-12-29T16:14:36.499Z,101800.63
2022-12-29T16:17:14.047Z,101806.53
2022-12-29T16:19:45.048Z,101806.94
2022-12-29T16:22:29.189Z,101814.75
2022-12-29T16:25:29.661Z,101808.09
2022-12-29T16:27:59.774Z,101806.94
2022-12-29T16:30:34.227Z,101818.34
2022-12-29T16:33:04.977Z,101822.81
2022-12-29T16:36:06.201Z,101817.28
2022-12-29T16:38:44.524Z,101818.84
2022-12-29T16:41:35.456Z,101819.69
2022-12-29T16:44:35.330Z,101821.50
2022-12-29T16:47:11.260Z,101816.22
2022-12-29T16:49:51.486Z,101823.38
2022-12-29T16:52:36.073Z,101822.16
2022-12-29T16:55:03.445Z,101817.03
2022-12-29T16:57:38.968Z,101817.47
2022-12-29T17:03:02.552Z,101805.75
2022-12-29T17:05:30.075Z,101805.81
2022-12-29T17:08:03.764Z,101811.16
2022-12-29T17:10:51.731Z,101810.25
2022-12-29T17:13:21.308Z,101818.31
2022-12-29T17:15:52.167Z,101813.84
2022-12-29T17:18:21.531Z,101803.59
2022-12-29T17:20:48.405Z,101805.06
2022-12-29T17:23:19.972Z,101811.09
2022-12-29T17:25:56.886Z,101815.56
2022-12-29T17:28:28.749Z,101805.78
2022-12-29T17:31:03.602Z,101816.47
2022-12-29T17:33:36.848Z,101813.69
2022-12-29T17:36:06.962Z,101805.88
2022-12-29T17:38:39.057Z,101805.81
2022-12-29T17:41:21.366Z,101811.97
2022-12-29T17:43:51.935Z,101804.88
2022-12-29T17:46:30.814Z,101819.63
2022-12-29T17:48:58.018Z,101811.84
2022-12-29T17:51:25.201Z,101804.47
2022-12-29T17:53:55.909Z,101810.97
2022-12-29T17:56:27.297Z,101829.94
2022-12-29T17:59:06.625Z,101825.22
2022-12-29T18:01:36.312Z,101822.81
2022-12-29T18:04:05.257Z,101813.06
2022-12-29T18:06:39.491Z,101816.38
2022-12-29T18:09:10.903Z,101819.59
2022-12-29T18:11:48.347Z,101811.19
2022-12-29T18:14:16.931Z,101812.00
2022-12-29T18:16:57.171Z,101811.09
2022-12-29T18:19:25.049Z,101813.78
2022-12-29T18:21:54.883Z,101808.28
2022-12-29T18:24:21.994Z,101802.28
2022-12-29T18:26:49.107Z,101802.28
2022-12-29T18:29:16.266Z,101809.16
2022-12-29T18:31:43.516Z,101809.34
2022-12-29T18:34:15.237Z,101811.03
2022-12-29T18:36:44.400Z,101798.47
2022-12-29T18:39:14.379Z,101796.38
2022-12-29T18:41:41.288Z,101803.88
2022-12-29T18:44:19.942Z,101816.22
2022-12-29T18:46:50.127Z,101802.25
2022-12-29T18:49:25.402Z,101803.09
2022-12-29T18:51:56.485Z,101795.84
2022-12-29T18:54:34.000Z,101799.38
2022-12-29T18:57:01.260Z,101801.28
2022-12-29T18:59:33.461Z,101797.53
2022-12-29T19:02:03.252Z,101805.56
2022-12-29T19:04:30.152Z,101800.19
2022-12-29T19:06:58.970Z,101804.94
2022-12-29T19:09:27.829Z,101803.09
2022-12-29T19:12:01.463Z,101798.34
2022-12-29T19:14:36.679Z,101806.53
2022-12-29T19:17:14.421Z,101809.53
2022-12-29T19:19:46.179Z,101805.97
2022-12-29T19:22:24.726Z,101806.31
2022-12-29T19:25:00.038Z,101820.81
2022-12-29T19:27:27.297Z,101820.16
2022-12-29T19:30:00.279Z,101819.13
2022-12-29T19:32:30.640Z,101813.13
2022-12-29T19:34:57.620Z,101813.00
2022-12-29T19:37:24.737Z,101816.47
2022-12-29T19:39:51.819Z,101824.44
2022-12-29T19:42:24.834Z,101834.81
2022-12-29T19:45:05.183Z,101835.00
2022-12-29T19:47:38.910Z,101829.72
2022-12-29T19:50:11.156Z,101833.31
2022-12-29T19:52:46.910Z,101837.53
2022-12-29T19:55:29.484Z,101834.25
2022-12-29T19:58:01.543Z,101829.88
2022-12-29T20:00:31.871Z,101835.19
2022-12-29T20:02:58.952Z,101836.75
2022-12-29T20:05:26.096Z,101844.75
2022-12-29T20:07:59.220Z,101843.84
2022-12-29T20:10:26.271Z,101835.69
2022-12-29T20:13:00.395Z,101837.41
2022-12-29T20:15:28.884Z,101830.44
2022-12-29T20:18:15.094Z,101827.19
2022-12-29T20:20:42.993Z,101835.88
2022-12-29T20:23:11.945Z,101842.75
2022-12-29T20:25:47.185Z,101841.63
2022-12-29T20:28:22.803Z,101854.06
2022-12-29T20:31:01.281Z,101851.88
2022-12-29T20:33:39.358Z,101844.09
2022-12-29T20:36:25.151Z,101846.63
2022-12-29T20:38:56.914Z,101842.22
2022-12-29T20:41:29.188Z,101843.19
2022-12-29T20:43:56.426Z,101841.38
2022-12-29T20:46:32.868Z,101834.91
2022-12-29T20:49:05.373Z,101834.88
2022-12-29T20:52:04.491Z,101840.38
2022-12-29T20:54:28.205Z,101830.25
2022-12-29T20:56:58.335Z,101838.47
2022-12-29T20:59:29.050Z,101831.13
2022-12-29T21:02:04.161Z,101834.59
2022-12-29T21:04:50.100Z,101833.91
2022-12-29T21:07:20.147Z,101827.56
2022-12-29T21:09:50.519Z,101820.44
2022-12-29T21:12:17.711Z,101823.41
2022-12-29T21:14:50.116Z,101816.22
2022-12-29T21:17:17.114Z,101814.16
2022-12-29T21:19:44.027Z,101817.81
2022-12-29T21:22:10.996Z,101817.97
2022-12-29T21:24:38.863Z,101806.69
2022-12-29T21:27:06.338Z,101802.44
2022-12-29T21:29:36.329Z,101787.16
2022-12-29T21:32:07.183Z,101784.59
2022-12-29T21:34:42.540Z,101794.34
2022-12-29T21:37:18.484Z,101800.69
2022-12-29T21:39:54.319Z,101794.13
2022-12-29T21:42:21.478Z,101808.88
2022-12-29T21:45:12.897Z,101806.66
2022-12-29T21:48:00.506Z,101790.34
2022-12-29T21:50:31.972Z,101797.28
2022-12-29T21:52:58.951Z,101787.72
2022-12-29T21:55:37.843Z,101793.75
2022-12-29T21:58:23.313Z,101798.34
2022-12-29T22:01:13.063Z,101795.81
2022-12-29T22:04:01.618Z,101797.13
2022-12-29T22:06:49.466Z,101784.56
2022-12-29T22:09:39.981Z,101795.94
2022-12-29T22:12:31.239Z,101781.78
2022-12-29T22:15:04.844Z,101781.88
2022-12-29T22:17:36.600Z,101779.44
2022-12-29T22:20:08.198Z,101778.88
2022-12-29T22:22:35.267Z,101772.03
2022-12-29T22:25:05.868Z,101777.06
2022-12-29T22:27:37.631Z,101775.16
2022-12-29T22:30:10.508Z,101768.84
2022-12-29T22:32:39.730Z,101770.59
2022-12-29T22:35:08.279Z,101764.66
2022-12-29T22:37:36.784Z,101768.00
2022-12-29T22:40:05.126Z,101767.59
2022-12-29T22:42:35.071Z,101756.91
2022-12-29T22:45:13.112Z,101757.84
2022-12-29T22:47:40.592Z,101752.75
2022-12-29T22:50:07.829Z,101756.19
2022-12-29T22:52:34.781Z,101754.19
2022-12-29T22:55:06.310Z,101755.31
2022-12-29T22:57:36.492Z,101759.31
2022-12-29T23:00:09.553Z,101759.06
2022-12-29T23:02:36.639Z,101758.78
2022-12-29T23:05:07.319Z,101759.34
2022-12-29T23:07:36.076Z,101755.97
2022-12-29T23:10:06.689Z,101753.13
2022-12-29T23:12:33.616Z,101750.22
2022-12-29T23:15:00.475Z,101762.28
2022-12-29T23:17:30.253Z,101746.97
2022-12-29T23:20:02.553Z,101745.38
2022-12-29T23:22:32.421Z,101744.00
2022-12-29T23:24:59.627Z,101747.38
2022-12-29T23:30:10.389Z,101741.75
2022-12-29T23:32:46.318Z,101741.72
2022-12-29T23:35:13.255Z,101739.25
2022-12-29T23:37:40.195Z,101725.63
2022-12-29T23:40:15.852Z,101725.53
2022-12-29T23:42:45.678Z,101728.28
2022-12-29T23:45:15.995Z,101719.53
2022-12-29T23:47:43.028Z,101706.59
2022-12-29T23:50:13.512Z,101711.91
2022-12-29T23:52:40.468Z,101712.50
2022-12-29T23:55:08.017Z,101711.25
2022-12-29T23:57:34.824Z,101703.88
